sensor_id;sensor_type;location;lat;lon;timestamp;temperature;humidity
51801;DHT22;37855;53.204;6.568;2023-03-14T00:01:56;9.70;70.00
51801;DHT22;37855;53.204;6.568;2023-03-14T00:04:27;9.70;70.20
51801;DHT22;37855;53.204;6.568;2023-03-14T00:06:57;9.70;70.10
51801;DHT22;37855;53.204;6.568;2023-03-14T00:09:23;9.70;70.30
51801;DHT22;37855;53.204;6.568;2023-03-14T00:11:49;9.70;70.30
51801;DHT22;37855;53.204;6.568;2023-03-14T00:14:14;9.70;70.40
51801;DHT22;37855;53.204;6.568;2023-03-14T00:16:44;9.80;70.30
51801;DHT22;37855;53.204;6.568;2023-03-14T00:19:10;9.80;70.30
51801;DHT22;37855;53.204;6.568;2023-03-14T00:21:36;9.80;70.40
51801;DHT22;37855;53.204;6.568;2023-03-14T00:24:05;9.90;70.30
51801;DHT22;37855;53.204;6.568;2023-03-14T00:26:31;9.90;70.30
51801;DHT22;37855;53.204;6.568;2023-03-14T00:28:56;9.90;70.20
51801;DHT22;37855;53.204;6.568;2023-03-14T00:31:22;10.00;70.10
51801;DHT22;37855;53.204;6.568;2023-03-14T00:33:51;9.90;70.20
51801;DHT22;37855;53.204;6.568;2023-03-14T00:36:18;10.00;70.10
51801;DHT22;37855;53.204;6.568;2023-03-14T00:38:47;10.00;70.10
51801;DHT22;37855;53.204;6.568;2023-03-14T00:41:16;10.00;70.10
51801;DHT22;37855;53.204;6.568;2023-03-14T00:43:42;10.00;70.10
51801;DHT22;37855;53.204;6.568;2023-03-14T00:46:08;10.00;70.10
51801;DHT22;37855;53.204;6.568;2023-03-14T00:48:34;10.00;70.10
51801;DHT22;37855;53.204;6.568;2023-03-14T00:51:00;10.00;70.20
51801;DHT22;37855;53.204;6.568;2023-03-14T00:53:25;10.00;70.20
51801;DHT22;37855;53.204;6.568;2023-03-14T00:55:51;10.00;70.20
51801;DHT22;37855;53.204;6.568;2023-03-14T00:58:17;10.00;70.20
51801;DHT22;37855;53.204;6.568;2023-03-14T01:00:45;10.00;70.30
51801;DHT22;37855;53.204;6.568;2023-03-14T01:03:13;9.90;70.40
51801;DHT22;37855;53.204;6.568;2023-03-14T01:05:39;10.00;70.40
51801;DHT22;37855;53.204;6.568;2023-03-14T01:08:07;10.00;70.30
51801;DHT22;37855;53.204;6.568;2023-03-14T01:10:34;10.00;70.30
51801;DHT22;37855;53.204;6.568;2023-03-14T01:13:00;10.00;70.40
51801;DHT22;37855;53.204;6.568;2023-03-14T01:15:26;10.00;70.40
51801;DHT22;37855;53.204;6.568;2023-03-14T01:17:51;10.00;70.40
51801;DHT22;37855;53.204;6.568;2023-03-14T01:20:17;10.10;70.40
51801;DHT22;37855;53.204;6.568;2023-03-14T01:22:46;10.10;70.40
51801;DHT22;37855;53.204;6.568;2023-03-14T01:25:16;10.10;70.30
51801;DHT22;37855;53.204;6.568;2023-03-14T01:27:42;10.20;70.30
51801;DHT22;37855;53.204;6.568;2023-03-14T01:30:09;10.20;70.30
51801;DHT22;37855;53.204;6.568;2023-03-14T01:32:36;10.20;70.30
51801;DHT22;37855;53.204;6.568;2023-03-14T01:35:02;10.20;70.20
51801;DHT22;37855;53.204;6.568;2023-03-14T01:37:28;10.20;70.20
51801;DHT22;37855;53.204;6.568;2023-03-14T01:39:54;10.30;70.10
51801;DHT22;37855;53.204;6.568;2023-03-14T01:42:19;10.30;70.00
51801;DHT22;37855;53.204;6.568;2023-03-14T01:44:58;10.30;70.10
51801;DHT22;37855;53.204;6.568;2023-03-14T01:47:24;10.30;70.00
51801;DHT22;37855;53.204;6.568;2023-03-14T01:50:04;10.40;69.90
51801;DHT22;37855;53.204;6.568;2023-03-14T01:52:36;10.40;69.90
51801;DHT22;37855;53.204;6.568;2023-03-14T01:55:12;10.40;70.00
51801;DHT22;37855;53.204;6.568;2023-03-14T01:57:44;10.40;70.00
51801;DHT22;37855;53.204;6.568;2023-03-14T02:00:12;10.30;70.10
51801;DHT22;37855;53.204;6.568;2023-03-14T02:02:48;10.30;70.20
51801;DHT22;37855;53.204;6.568;2023-03-14T02:05:25;10.30;70.30
51801;DHT22;37855;53.204;6.568;2023-03-14T02:07:56;10.30;70.70
51801;DHT22;37855;53.204;6.568;2023-03-14T02:10:26;10.30;70.70
51801;DHT22;37855;53.204;6.568;2023-03-14T02:12:55;10.20;71.10
51801;DHT22;37855;53.204;6.568;2023-03-14T02:15:22;10.20;71.50
51801;DHT22;37855;53.204;6.568;2023-03-14T02:17:47;10.20;71.60
51801;DHT22;37855;53.204;6.568;2023-03-14T02:21:04;10.20;71.80
51801;DHT22;37855;53.204;6.568;2023-03-14T02:26:14;10.20;72.10
51801;DHT22;37855;53.204;6.568;2023-03-14T02:28:41;10.10;72.30
51801;DHT22;37855;53.204;6.568;2023-03-14T02:31:08;10.10;72.10
51801;DHT22;37855;53.204;6.568;2023-03-14T02:33:35;10.10;72.20
51801;DHT22;37855;53.204;6.568;2023-03-14T02:36:06;10.00;72.50
51801;DHT22;37855;53.204;6.568;2023-03-14T02:41:05;10.00;72.40
51801;DHT22;37855;53.204;6.568;2023-03-14T02:43:31;10.00;72.60
51801;DHT22;37855;53.204;6.568;2023-03-14T02:45:56;10.00;72.60
51801;DHT22;37855;53.204;6.568;2023-03-14T02:51:00;10.00;72.50
51801;DHT22;37855;53.204;6.568;2023-03-14T02:53:30;10.00;72.50
51801;DHT22;37855;53.204;6.568;2023-03-14T02:55:56;10.00;72.50
51801;DHT22;37855;53.204;6.568;2023-03-14T02:58:22;10.00;72.70
51801;DHT22;37855;53.204;6.568;2023-03-14T03:00:49;10.00;73.10
51801;DHT22;37855;53.204;6.568;2023-03-14T03:03:14;9.90;73.30
51801;DHT22;37855;53.204;6.568;2023-03-14T03:05:40;9.90;73.70
51801;DHT22;37855;53.204;6.568;2023-03-14T03:08:08;9.90;73.90
51801;DHT22;37855;53.204;6.568;2023-03-14T03:10:33;9.80;74.20
51801;DHT22;37855;53.204;6.568;2023-03-14T03:12:59;9.90;74.20
51801;DHT22;37855;53.204;6.568;2023-03-14T03:15:25;9.80;74.20
51801;DHT22;37855;53.204;6.568;2023-03-14T03:17:50;9.90;74.40
51801;DHT22;37855;53.204;6.568;2023-03-14T03:20:16;9.80;74.80
51801;DHT22;37855;53.204;6.568;2023-03-14T03:22:43;9.80;75.00
51801;DHT22;37855;53.204;6.568;2023-03-14T03:25:10;9.80;75.30
51801;DHT22;37855;53.204;6.568;2023-03-14T03:27:38;9.80;75.50
51801;DHT22;37855;53.204;6.568;2023-03-14T03:30:06;9.70;76.00
51801;DHT22;37855;53.204;6.568;2023-03-14T03:32:32;9.60;76.50
51801;DHT22;37855;53.204;6.568;2023-03-14T03:34:58;9.60;76.20
51801;DHT22;37855;53.204;6.568;2023-03-14T03:37:23;9.60;76.50
51801;DHT22;37855;53.204;6.568;2023-03-14T03:39:52;9.60;76.60
51801;DHT22;37855;53.204;6.568;2023-03-14T03:42:18;9.60;76.90
51801;DHT22;37855;53.204;6.568;2023-03-14T03:44:44;9.60;76.90
51801;DHT22;37855;53.204;6.568;2023-03-14T03:47:35;9.60;77.00
51801;DHT22;37855;53.204;6.568;2023-03-14T03:50:00;9.50;77.30
51801;DHT22;37855;53.204;6.568;2023-03-14T03:52:26;9.60;77.20
51801;DHT22;37855;53.204;6.568;2023-03-14T03:54:52;9.50;77.10
51801;DHT22;37855;53.204;6.568;2023-03-14T03:57:17;9.60;77.30
51801;DHT22;37855;53.204;6.568;2023-03-14T03:59:43;9.50;77.10
51801;DHT22;37855;53.204;6.568;2023-03-14T04:02:08;9.50;77.20
51801;DHT22;37855;53.204;6.568;2023-03-14T04:04:34;9.50;77.20
51801;DHT22;37855;53.204;6.568;2023-03-14T04:07:01;9.50;77.40
51801;DHT22;37855;53.204;6.568;2023-03-14T04:09:28;9.50;77.40
51801;DHT22;37855;53.204;6.568;2023-03-14T04:12:03;9.50;77.40
51801;DHT22;37855;53.204;6.568;2023-03-14T04:14:29;9.50;77.30
51801;DHT22;37855;53.204;6.568;2023-03-14T04:16:54;9.40;77.30
51801;DHT22;37855;53.204;6.568;2023-03-14T04:19:20;9.50;77.30
51801;DHT22;37855;53.204;6.568;2023-03-14T04:21:47;9.50;77.40
51801;DHT22;37855;53.204;6.568;2023-03-14T04:24:13;9.50;77.50
51801;DHT22;37855;53.204;6.568;2023-03-14T04:26:39;9.50;77.60
51801;DHT22;37855;53.204;6.568;2023-03-14T04:29:06;9.50;77.60
51801;DHT22;37855;53.204;6.568;2023-03-14T04:31:34;9.50;77.60
51801;DHT22;37855;53.204;6.568;2023-03-14T04:33:59;9.50;77.80
51801;DHT22;37855;53.204;6.568;2023-03-14T04:36:25;9.50;77.70
51801;DHT22;37855;53.204;6.568;2023-03-14T04:38:51;9.50;77.80
51801;DHT22;37855;53.204;6.568;2023-03-14T04:41:16;9.50;77.80
51801;DHT22;37855;53.204;6.568;2023-03-14T04:43:42;9.40;78.10
51801;DHT22;37855;53.204;6.568;2023-03-14T04:46:08;9.40;78.20
51801;DHT22;37855;53.204;6.568;2023-03-14T04:48:33;9.40;78.20
51801;DHT22;37855;53.204;6.568;2023-03-14T04:50:59;9.40;78.60
51801;DHT22;37855;53.204;6.568;2023-03-14T04:53:26;9.40;78.40
51801;DHT22;37855;53.204;6.568;2023-03-14T04:55:54;9.40;78.40
51801;DHT22;37855;53.204;6.568;2023-03-14T04:58:21;9.40;78.60
51801;DHT22;37855;53.204;6.568;2023-03-14T05:00:47;9.40;78.60
51801;DHT22;37855;53.204;6.568;2023-03-14T05:03:17;9.40;78.70
51801;DHT22;37855;53.204;6.568;2023-03-14T05:05:44;9.40;78.70
51801;DHT22;37855;53.204;6.568;2023-03-14T05:08:10;9.40;78.80
51801;DHT22;37855;53.204;6.568;2023-03-14T05:10:36;9.40;78.90
51801;DHT22;37855;53.204;6.568;2023-03-14T05:13:02;9.30;78.90
51801;DHT22;37855;53.204;6.568;2023-03-14T05:15:28;9.30;78.90
51801;DHT22;37855;53.204;6.568;2023-03-14T05:17:54;9.30;79.10
51801;DHT22;37855;53.204;6.568;2023-03-14T05:20:20;9.30;79.10
51801;DHT22;37855;53.204;6.568;2023-03-14T05:22:49;9.30;79.20
51801;DHT22;37855;53.204;6.568;2023-03-14T05:25:14;9.30;79.30
51801;DHT22;37855;53.204;6.568;2023-03-14T05:27:40;9.30;79.30
51801;DHT22;37855;53.204;6.568;2023-03-14T05:30:06;9.30;79.30
51801;DHT22;37855;53.204;6.568;2023-03-14T05:32:32;9.30;79.40
51801;DHT22;37855;53.204;6.568;2023-03-14T05:34:58;9.30;79.40
51801;DHT22;37855;53.204;6.568;2023-03-14T05:37:28;9.30;79.50
51801;DHT22;37855;53.204;6.568;2023-03-14T05:39:53;9.20;79.50
51801;DHT22;37855;53.204;6.568;2023-03-14T05:42:19;9.20;79.50
51801;DHT22;37855;53.204;6.568;2023-03-14T05:44:45;9.20;79.60
51801;DHT22;37855;53.204;6.568;2023-03-14T05:47:11;9.10;79.90
51801;DHT22;37855;53.204;6.568;2023-03-14T05:49:37;9.20;79.70
51801;DHT22;37855;53.204;6.568;2023-03-14T05:52:02;9.10;80.00
51801;DHT22;37855;53.204;6.568;2023-03-14T05:54:28;9.10;79.70
51801;DHT22;37855;53.204;6.568;2023-03-14T05:56:54;9.10;79.90
51801;DHT22;37855;53.204;6.568;2023-03-14T05:59:19;9.10;80.00
51801;DHT22;37855;53.204;6.568;2023-03-14T06:01:45;9.10;80.00
51801;DHT22;37855;53.204;6.568;2023-03-14T06:04:11;9.10;80.10
51801;DHT22;37855;53.204;6.568;2023-03-14T06:06:36;9.10;80.00
51801;DHT22;37855;53.204;6.568;2023-03-14T06:09:02;9.10;80.00
51801;DHT22;37855;53.204;6.568;2023-03-14T06:11:28;9.10;80.20
51801;DHT22;37855;53.204;6.568;2023-03-14T06:13:54;9.10;80.10
51801;DHT22;37855;53.204;6.568;2023-03-14T06:16:19;9.10;80.00
51801;DHT22;37855;53.204;6.568;2023-03-14T06:18:45;9.10;80.10
51801;DHT22;37855;53.204;6.568;2023-03-14T06:21:14;9.00;80.30
51801;DHT22;37855;53.204;6.568;2023-03-14T06:23:40;9.10;80.20
51801;DHT22;37855;53.204;6.568;2023-03-14T06:26:06;9.00;80.10
51801;DHT22;37855;53.204;6.568;2023-03-14T06:28:32;9.00;80.10
51801;DHT22;37855;53.204;6.568;2023-03-14T06:30:59;9.10;80.40
51801;DHT22;37855;53.204;6.568;2023-03-14T06:33:25;9.10;80.20
51801;DHT22;37855;53.204;6.568;2023-03-14T06:35:55;9.00;78.20
51801;DHT22;37855;53.204;6.568;2023-03-14T06:38:20;8.70;76.80
51801;DHT22;37855;53.204;6.568;2023-03-14T06:40:46;8.40;76.70
51801;DHT22;37855;53.204;6.568;2023-03-14T06:43:12;8.20;77.00
51801;DHT22;37855;53.204;6.568;2023-03-14T06:45:37;7.90;77.00
51801;DHT22;37855;53.204;6.568;2023-03-14T06:48:03;7.70;77.20
51801;DHT22;37855;53.204;6.568;2023-03-14T06:50:29;7.60;77.50
51801;DHT22;37855;53.204;6.568;2023-03-14T06:52:55;7.50;76.70
51801;DHT22;37855;53.204;6.568;2023-03-14T06:55:20;7.30;76.60
51801;DHT22;37855;53.204;6.568;2023-03-14T06:57:46;7.00;76.90
51801;DHT22;37855;53.204;6.568;2023-03-14T07:00:13;6.80;76.40
51801;DHT22;37855;53.204;6.568;2023-03-14T07:02:39;6.60;75.70
51801;DHT22;37855;53.204;6.568;2023-03-14T07:05:05;6.30;75.90
51801;DHT22;37855;53.204;6.568;2023-03-14T07:07:31;6.10;76.50
51801;DHT22;37855;53.204;6.568;2023-03-14T07:09:58;5.90;76.90
51801;DHT22;37855;53.204;6.568;2023-03-14T07:12:24;5.90;77.30
51801;DHT22;37855;53.204;6.568;2023-03-14T07:14:50;5.70;77.60
51801;DHT22;37855;53.204;6.568;2023-03-14T07:17:15;5.70;77.20
51801;DHT22;37855;53.204;6.568;2023-03-14T07:19:41;5.60;77.30
51801;DHT22;37855;53.204;6.568;2023-03-14T07:22:07;5.60;77.30
51801;DHT22;37855;53.204;6.568;2023-03-14T07:24:32;5.40;77.80
51801;DHT22;37855;53.204;6.568;2023-03-14T07:26:58;5.40;77.10
51801;DHT22;37855;53.204;6.568;2023-03-14T07:29:24;5.40;75.80
51801;DHT22;37855;53.204;6.568;2023-03-14T07:31:49;5.20;76.60
51801;DHT22;37855;53.204;6.568;2023-03-14T07:34:15;5.10;77.20
51801;DHT22;37855;53.204;6.568;2023-03-14T07:36:41;5.10;76.10
51801;DHT22;37855;53.204;6.568;2023-03-14T07:39:08;5.10;75.90
51801;DHT22;37855;53.204;6.568;2023-03-14T07:41:34;5.00;76.30
51801;DHT22;37855;53.204;6.568;2023-03-14T07:44:00;5.00;76.30
51801;DHT22;37855;53.204;6.568;2023-03-14T07:46:26;4.90;76.10
51801;DHT22;37855;53.204;6.568;2023-03-14T07:48:52;4.90;76.20
51801;DHT22;37855;53.204;6.568;2023-03-14T07:51:17;4.90;76.30
51801;DHT22;37855;53.204;6.568;2023-03-14T07:53:43;4.80;76.80
51801;DHT22;37855;53.204;6.568;2023-03-14T07:56:09;4.80;76.80
51801;DHT22;37855;53.204;6.568;2023-03-14T07:58:35;4.70;77.30
51801;DHT22;37855;53.204;6.568;2023-03-14T08:01:00;4.70;77.60
51801;DHT22;37855;53.204;6.568;2023-03-14T08:03:26;4.70;77.80
51801;DHT22;37855;53.204;6.568;2023-03-14T08:05:52;4.80;77.60
51801;DHT22;37855;53.204;6.568;2023-03-14T08:08:18;4.90;77.20
51801;DHT22;37855;53.204;6.568;2023-03-14T08:10:44;4.90;77.60
51801;DHT22;37855;53.204;6.568;2023-03-14T08:13:11;4.90;77.60
51801;DHT22;37855;53.204;6.568;2023-03-14T08:15:38;5.00;76.80
51801;DHT22;37855;53.204;6.568;2023-03-14T08:18:05;5.10;76.40
51801;DHT22;37855;53.204;6.568;2023-03-14T08:20:31;5.10;76.60
51801;DHT22;37855;53.204;6.568;2023-03-14T08:22:58;5.10;76.80
51801;DHT22;37855;53.204;6.568;2023-03-14T08:25:24;5.20;76.60
51801;DHT22;37855;53.204;6.568;2023-03-14T08:27:50;5.10;76.80
51801;DHT22;37855;53.204;6.568;2023-03-14T08:30:19;5.20;77.20
51801;DHT22;37855;53.204;6.568;2023-03-14T08:32:58;5.30;77.20
51801;DHT22;37855;53.204;6.568;2023-03-14T08:35:27;5.30;77.30
51801;DHT22;37855;53.204;6.568;2023-03-14T08:37:53;5.50;76.30
51801;DHT22;37855;53.204;6.568;2023-03-14T08:40:21;5.50;76.10
51801;DHT22;37855;53.204;6.568;2023-03-14T08:42:56;5.60;75.40
51801;DHT22;37855;53.204;6.568;2023-03-14T08:45:21;5.60;75.90
51801;DHT22;37855;53.204;6.568;2023-03-14T08:47:48;5.60;75.10
51801;DHT22;37855;53.204;6.568;2023-03-14T08:50:14;5.70;74.00
51801;DHT22;37855;53.204;6.568;2023-03-14T08:52:40;5.70;74.30
51801;DHT22;37855;53.204;6.568;2023-03-14T08:55:08;5.70;74.50
51801;DHT22;37855;53.204;6.568;2023-03-14T08:57:34;5.80;74.50
51801;DHT22;37855;53.204;6.568;2023-03-14T09:00:02;5.90;74.10
51801;DHT22;37855;53.204;6.568;2023-03-14T09:02:30;5.90;73.60
51801;DHT22;37855;53.204;6.568;2023-03-14T09:04:56;6.00;73.00
51801;DHT22;37855;53.204;6.568;2023-03-14T09:07:21;6.10;72.30
51801;DHT22;37855;53.204;6.568;2023-03-14T09:09:47;6.10;72.80
51801;DHT22;37855;53.204;6.568;2023-03-14T09:12:13;6.20;72.30
51801;DHT22;37855;53.204;6.568;2023-03-14T09:14:42;6.30;72.00
51801;DHT22;37855;53.204;6.568;2023-03-14T09:17:08;6.40;71.70
51801;DHT22;37855;53.204;6.568;2023-03-14T09:19:34;6.40;70.50
51801;DHT22;37855;53.204;6.568;2023-03-14T09:22:00;6.40;70.60
51801;DHT22;37855;53.204;6.568;2023-03-14T09:24:25;6.40;70.40
51801;DHT22;37855;53.204;6.568;2023-03-14T09:26:51;6.40;69.70
51801;DHT22;37855;53.204;6.568;2023-03-14T09:29:17;6.50;69.30
51801;DHT22;37855;53.204;6.568;2023-03-14T09:31:43;6.40;68.90
51801;DHT22;37855;53.204;6.568;2023-03-14T09:34:09;6.40;67.50
51801;DHT22;37855;53.204;6.568;2023-03-14T09:36:34;6.40;68.00
51801;DHT22;37855;53.204;6.568;2023-03-14T09:39:00;6.30;68.50
51801;DHT22;37855;53.204;6.568;2023-03-14T09:41:33;6.40;67.80
51801;DHT22;37855;53.204;6.568;2023-03-14T09:44:22;6.30;67.80
51801;DHT22;37855;53.204;6.568;2023-03-14T09:46:53;6.30;66.90
51801;DHT22;37855;53.204;6.568;2023-03-14T09:49:26;6.30;65.90
51801;DHT22;37855;53.204;6.568;2023-03-14T09:51:55;6.30;65.40
51801;DHT22;37855;53.204;6.568;2023-03-14T09:54:50;6.30;65.10
51801;DHT22;37855;53.204;6.568;2023-03-14T09:57:19;6.40;64.70
51801;DHT22;37855;53.204;6.568;2023-03-14T09:59:50;6.40;64.00
51801;DHT22;37855;53.204;6.568;2023-03-14T10:02:22;6.40;63.70
51801;DHT22;37855;53.204;6.568;2023-03-14T10:04:50;6.40;64.20
51801;DHT22;37855;53.204;6.568;2023-03-14T10:07:27;6.30;64.70
51801;DHT22;37855;53.204;6.568;2023-03-14T10:09:54;6.30;64.80
51801;DHT22;37855;53.204;6.568;2023-03-14T10:12:21;6.30;64.40
51801;DHT22;37855;53.204;6.568;2023-03-14T10:14:55;6.30;64.40
51801;DHT22;37855;53.204;6.568;2023-03-14T10:17:21;6.40;62.70
51801;DHT22;37855;53.204;6.568;2023-03-14T10:20:00;6.40;62.50
51801;DHT22;37855;53.204;6.568;2023-03-14T10:22:32;6.50;61.90
51801;DHT22;37855;53.204;6.568;2023-03-14T10:25:03;6.40;62.10
51801;DHT22;37855;53.204;6.568;2023-03-14T10:27:36;6.50;60.90
51801;DHT22;37855;53.204;6.568;2023-03-14T10:30:07;6.60;60.50
51801;DHT22;37855;53.204;6.568;2023-03-14T10:32:39;6.60;58.80
51801;DHT22;37855;53.204;6.568;2023-03-14T10:37:56;6.50;58.20
51801;DHT22;37855;53.204;6.568;2023-03-14T10:40:33;6.50;59.10
51801;DHT22;37855;53.204;6.568;2023-03-14T10:43:00;6.50;58.60
51801;DHT22;37855;53.204;6.568;2023-03-14T10:45:43;6.50;57.20
51801;DHT22;37855;53.204;6.568;2023-03-14T10:48:35;6.50;57.00
51801;DHT22;37855;53.204;6.568;2023-03-14T11:00:36;6.60;55.50
51801;DHT22;37855;53.204;6.568;2023-03-14T11:03:17;6.70;55.00
51801;DHT22;37855;53.204;6.568;2023-03-14T11:12:26;6.60;52.60
51801;DHT22;37855;53.204;6.568;2023-03-14T11:15:04;6.60;53.70
51801;DHT22;37855;53.204;6.568;2023-03-14T11:22:59;6.70;52.40
51801;DHT22;37855;53.204;6.568;2023-03-14T11:25:53;6.70;50.80
51801;DHT22;37855;53.204;6.568;2023-03-14T11:31:07;6.50;50.50
51801;DHT22;37855;53.204;6.568;2023-03-14T11:33:48;6.60;50.50
51801;DHT22;37855;53.204;6.568;2023-03-14T11:36:37;6.60;50.70
51801;DHT22;37855;53.204;6.568;2023-03-14T11:39:18;6.70;50.00
51801;DHT22;37855;53.204;6.568;2023-03-14T11:41:50;6.70;49.30
51801;DHT22;37855;53.204;6.568;2023-03-14T11:44:20;6.60;49.80
51801;DHT22;37855;53.204;6.568;2023-03-14T11:46:52;6.60;50.20
51801;DHT22;37855;53.204;6.568;2023-03-14T11:50:21;6.50;50.20
51801;DHT22;37855;53.204;6.568;2023-03-14T11:52:32;6.50;50.50
51801;DHT22;37855;53.204;6.568;2023-03-14T11:57:57;6.60;50.70
51801;DHT22;37855;53.204;6.568;2023-03-14T12:00:24;6.70;50.40
51801;DHT22;37855;53.204;6.568;2023-03-14T12:05:33;6.90;51.40
51801;DHT22;37855;53.204;6.568;2023-03-14T12:10:53;7.00;49.80
51801;DHT22;37855;53.204;6.568;2023-03-14T12:13:19;6.80;51.10
51801;DHT22;37855;53.204;6.568;2023-03-14T12:15:57;6.70;51.90
51801;DHT22;37855;53.204;6.568;2023-03-14T12:18:31;6.70;52.20
51801;DHT22;37855;53.204;6.568;2023-03-14T12:21:03;6.70;51.80
51801;DHT22;37855;53.204;6.568;2023-03-14T12:23:52;6.60;52.60
51801;DHT22;37855;53.204;6.568;2023-03-14T12:26:23;6.60;53.10
51801;DHT22;37855;53.204;6.568;2023-03-14T12:29:14;6.60;52.00
51801;DHT22;37855;53.204;6.568;2023-03-14T12:31:49;6.50;53.40
51801;DHT22;37855;53.204;6.568;2023-03-14T12:34:42;6.50;53.40
51801;DHT22;37855;53.204;6.568;2023-03-14T12:39:45;6.50;54.20
51801;DHT22;37855;53.204;6.568;2023-03-14T12:44:47;6.50;55.20
51801;DHT22;37855;53.204;6.568;2023-03-14T12:49:49;6.40;54.80
51801;DHT22;37855;53.204;6.568;2023-03-14T12:52:38;6.40;54.70
51801;DHT22;37855;53.204;6.568;2023-03-14T13:00:41;6.40;54.60
51801;DHT22;37855;53.204;6.568;2023-03-14T13:03:19;6.30;54.60
51801;DHT22;37855;53.204;6.568;2023-03-14T13:06:00;6.30;52.60
51801;DHT22;37855;53.204;6.568;2023-03-14T13:08:44;6.30;51.00
51801;DHT22;37855;53.204;6.568;2023-03-14T13:11:19;6.30;49.90
51801;DHT22;37855;53.204;6.568;2023-03-14T13:13:52;6.30;50.40
51801;DHT22;37855;53.204;6.568;2023-03-14T13:16:21;6.30;49.40
51801;DHT22;37855;53.204;6.568;2023-03-14T13:18:49;6.50;49.30
51801;DHT22;37855;53.204;6.568;2023-03-14T13:21:21;6.60;49.50
51801;DHT22;37855;53.204;6.568;2023-03-14T13:23:58;6.70;49.80
51801;DHT22;37855;53.204;6.568;2023-03-14T13:26:38;6.80;49.90
51801;DHT22;37855;53.204;6.568;2023-03-14T13:29:20;6.80;50.10
51801;DHT22;37855;53.204;6.568;2023-03-14T13:31:48;6.90;50.40
51801;DHT22;37855;53.204;6.568;2023-03-14T13:34:14;6.90;50.10
51801;DHT22;37855;53.204;6.568;2023-03-14T13:36:40;6.90;49.20
51801;DHT22;37855;53.204;6.568;2023-03-14T13:39:13;7.00;48.30
51801;DHT22;37855;53.204;6.568;2023-03-14T13:41:40;6.90;48.30
51801;DHT22;37855;53.204;6.568;2023-03-14T13:44:09;6.80;48.90
51801;DHT22;37855;53.204;6.568;2023-03-14T13:46:38;6.70;49.00
51801;DHT22;37855;53.204;6.568;2023-03-14T13:49:06;6.70;49.20
51801;DHT22;37855;53.204;6.568;2023-03-14T13:51:36;6.80;49.40
51801;DHT22;37855;53.204;6.568;2023-03-14T13:54:11;6.90;49.60
51801;DHT22;37855;53.204;6.568;2023-03-14T13:56:38;7.00;50.30
51801;DHT22;37855;53.204;6.568;2023-03-14T13:59:03;7.10;50.80
51801;DHT22;37855;53.204;6.568;2023-03-14T14:01:32;7.00;49.80
51801;DHT22;37855;53.204;6.568;2023-03-14T14:04:07;6.90;49.80
51801;DHT22;37855;53.204;6.568;2023-03-14T14:06:37;6.80;50.20
51801;DHT22;37855;53.204;6.568;2023-03-14T14:09:15;6.70;50.40
51801;DHT22;37855;53.204;6.568;2023-03-14T14:11:49;6.50;50.70
51801;DHT22;37855;53.204;6.568;2023-03-14T14:14:39;6.50;49.90
51801;DHT22;37855;53.204;6.568;2023-03-14T14:17:08;6.60;48.80
51801;DHT22;37855;53.204;6.568;2023-03-14T14:19:35;6.60;47.70
51801;DHT22;37855;53.204;6.568;2023-03-14T14:22:02;6.50;47.60
51801;DHT22;37855;53.204;6.568;2023-03-14T14:24:31;6.50;48.00
51801;DHT22;37855;53.204;6.568;2023-03-14T14:27:24;6.50;47.00
51801;DHT22;37855;53.204;6.568;2023-03-14T14:29:58;6.50;47.50
51801;DHT22;37855;53.204;6.568;2023-03-14T14:32:25;6.50;48.60
51801;DHT22;37855;53.204;6.568;2023-03-14T14:34:58;6.50;49.60
51801;DHT22;37855;53.204;6.568;2023-03-14T14:37:26;6.50;51.00
51801;DHT22;37855;53.204;6.568;2023-03-14T14:39:55;6.50;51.90
51801;DHT22;37855;53.204;6.568;2023-03-14T14:42:25;6.40;52.90
51801;DHT22;37855;53.204;6.568;2023-03-14T14:44:51;6.30;53.80
51801;DHT22;37855;53.204;6.568;2023-03-14T14:47:21;6.30;54.90
51801;DHT22;37855;53.204;6.568;2023-03-14T14:49:48;6.20;56.70
51801;DHT22;37855;53.204;6.568;2023-03-14T14:52:17;6.10;57.60
51801;DHT22;37855;53.204;6.568;2023-03-14T14:54:57;6.00;58.50
51801;DHT22;37855;53.204;6.568;2023-03-14T14:57:32;5.90;58.80
51801;DHT22;37855;53.204;6.568;2023-03-14T15:00:06;6.00;59.30
51801;DHT22;37855;53.204;6.568;2023-03-14T15:05:13;6.20;57.70
51801;DHT22;37855;53.204;6.568;2023-03-14T15:07:39;6.40;55.30
51801;DHT22;37855;53.204;6.568;2023-03-14T15:10:06;6.50;52.40
51801;DHT22;37855;53.204;6.568;2023-03-14T15:12:31;6.50;51.40
51801;DHT22;37855;53.204;6.568;2023-03-14T15:14:57;6.60;50.90
51801;DHT22;37855;53.204;6.568;2023-03-14T15:17:23;6.60;51.10
51801;DHT22;37855;53.204;6.568;2023-03-14T15:19:50;6.50;50.90
51801;DHT22;37855;53.204;6.568;2023-03-14T15:22:20;6.40;50.50
51801;DHT22;37855;53.204;6.568;2023-03-14T15:24:46;6.30;50.30
51801;DHT22;37855;53.204;6.568;2023-03-14T15:27:13;6.30;50.30
51801;DHT22;37855;53.204;6.568;2023-03-14T15:29:40;6.20;51.00
51801;DHT22;37855;53.204;6.568;2023-03-14T15:32:14;6.20;51.00
51801;DHT22;37855;53.204;6.568;2023-03-14T15:34:44;6.20;51.70
51801;DHT22;37855;53.204;6.568;2023-03-14T15:37:14;6.20;51.50
51801;DHT22;37855;53.204;6.568;2023-03-14T15:39:44;6.30;52.70
51801;DHT22;37855;53.204;6.568;2023-03-14T15:42:10;6.30;53.20
51801;DHT22;37855;53.204;6.568;2023-03-14T15:44:36;6.30;53.50
51801;DHT22;37855;53.204;6.568;2023-03-14T15:47:03;6.30;53.70
51801;DHT22;37855;53.204;6.568;2023-03-14T15:49:29;6.30;52.60
51801;DHT22;37855;53.204;6.568;2023-03-14T15:51:56;6.30;51.00
51801;DHT22;37855;53.204;6.568;2023-03-14T15:57:54;6.30;50.90
51801;DHT22;37855;53.204;6.568;2023-03-14T16:00:22;6.20;51.10
51801;DHT22;37855;53.204;6.568;2023-03-14T16:03:01;6.20;51.50
51801;DHT22;37855;53.204;6.568;2023-03-14T16:05:27;6.10;51.90
51801;DHT22;37855;53.204;6.568;2023-03-14T16:07:53;6.00;52.00
51801;DHT22;37855;53.204;6.568;2023-03-14T16:10:19;5.90;52.50
51801;DHT22;37855;53.204;6.568;2023-03-14T16:12:44;5.90;52.90
51801;DHT22;37855;53.204;6.568;2023-03-14T16:15:10;5.80;53.40
51801;DHT22;37855;53.204;6.568;2023-03-14T16:17:36;5.80;53.90
51801;DHT22;37855;53.204;6.568;2023-03-14T16:20:04;5.80;54.90
51801;DHT22;37855;53.204;6.568;2023-03-14T16:22:30;5.70;55.10
51801;DHT22;37855;53.204;6.568;2023-03-14T16:25:01;5.70;55.60
51801;DHT22;37855;53.204;6.568;2023-03-14T16:27:29;5.70;56.20
51801;DHT22;37855;53.204;6.568;2023-03-14T16:29:56;5.60;58.80
51801;DHT22;37855;53.204;6.568;2023-03-14T16:32:23;5.40;60.30
51801;DHT22;37855;53.204;6.568;2023-03-14T16:34:48;5.20;60.80
51801;DHT22;37855;53.204;6.568;2023-03-14T16:37:14;5.00;61.70
51801;DHT22;37855;53.204;6.568;2023-03-14T16:39:40;4.90;62.20
51801;DHT22;37855;53.204;6.568;2023-03-14T16:42:09;4.90;62.60
51801;DHT22;37855;53.204;6.568;2023-03-14T16:44:35;5.00;62.90
51801;DHT22;37855;53.204;6.568;2023-03-14T16:47:02;5.00;63.20
51801;DHT22;37855;53.204;6.568;2023-03-14T16:49:30;5.10;63.50
51801;DHT22;37855;53.204;6.568;2023-03-14T16:51:56;5.10;63.80
51801;DHT22;37855;53.204;6.568;2023-03-14T16:54:22;5.10;63.60
51801;DHT22;37855;53.204;6.568;2023-03-14T16:56:50;5.10;63.60
51801;DHT22;37855;53.204;6.568;2023-03-14T16:59:17;5.20;61.50